Time;durP1;ratioP1;P1;durP2;ratioP2;P2;SDS_P1;SDS_P2;PMS_P1;PMS_P2;Temp;Humidity;BMP_temperature;BMP_pressure;BME280_temperature;BME280_humidity;BME280_pressure;Samples;Min_cycle;Max_cycle;Signal;HPM_P1;HPM_P2
2022/01/15 00:00:51;;;;;;;10.10;9.23;;;;;;;0.37;100.00;92279.94;4937843;28;20655;-72
2022/01/15 00:03:18;;;;;;;4.23;3.93;;;;;;;0.35;100.00;92265.88;4937903;28;20215;-72
2022/01/15 00:05:46;;;;;;;3.00;2.80;;;;;;;0.46;100.00;92285.63;4936949;28;20604;-73
2022/01/15 00:08:13;;;;;;;1.20;1.20;;;;;;;0.51;99.52;92282.25;4937510;28;20576;-72
2022/01/15 00:10:40;;;;;;;7.00;1.97;;;;;;;0.67;97.86;92308.59;4936940;28;20567;-72
2022/01/15 00:13:13;;;;;;;3.50;3.37;;;;;;;0.84;97.67;92308.41;4937124;28;20639;-72
2022/01/15 00:15:49;;;;;;;3.23;3.03;;;;;;;0.97;96.91;92319.84;4936865;28;20570;-73
2022/01/15 00:18:17;;;;;;;4.07;1.80;;;;;;;0.99;96.37;92322.31;4936757;28;20340;-74
2022/01/15 00:20:44;;;;;;;3.97;3.77;;;;;;;1.00;95.62;92332.25;4936882;28;20201;-72
2022/01/15 00:23:12;;;;;;;5.77;4.70;;;;;;;1.07;95.16;92342.97;4937675;28;20639;-72
2022/01/15 00:25:39;;;;;;;5.47;5.00;;;;;;;0.87;95.03;92318.31;4936982;28;20629;-72
2022/01/15 00:28:06;;;;;;;11.30;6.70;;;;;;;1.02;95.40;92343.00;4936857;28;20688;-73
2022/01/15 00:30:33;;;;;;;7.03;6.63;;;;;;;0.95;95.43;92340.63;4936883;28;20277;-73
2022/01/15 00:33:02;;;;;;;10.70;7.03;;;;;;;0.91;95.61;92344.78;4936953;28;20627;-73
2022/01/15 00:35:29;;;;;;;7.03;6.60;;;;;;;0.78;95.62;92350.75;4936789;28;20326;-73
2022/01/15 00:37:57;;;;;;;9.90;6.73;;;;;;;0.73;96.56;92349.97;4937339;28;20466;-73
2022/01/15 00:40:24;;;;;;;5.20;4.80;;;;;;;0.61;96.99;92347.63;4937611;28;20573;-73
2022/01/15 00:42:51;;;;;;;4.13;3.83;;;;;;;0.64;96.10;92363.31;4936455;28;20303;-73
2022/01/15 00:45:21;;;;;;;4.43;4.13;;;;;;;0.75;95.69;92361.53;4937852;28;20591;-73
2022/01/15 00:47:49;;;;;;;6.83;4.50;;;;;;;0.83;94.98;92379.69;4945946;28;20489;-73
2022/01/15 00:50:18;;;;;;;4.63;4.10;;;;;;;0.97;94.55;92378.69;4938691;28;20208;-72
2022/01/15 00:52:46;;;;;;;5.23;4.73;;;;;;;1.00;92.47;92396.09;4936824;28;20557;-73
2022/01/15 00:55:14;;;;;;;2.97;2.63;;;;;;;1.10;92.40;92393.47;4917382;28;20487;-72
2022/01/15 00:57:41;;;;;;;4.23;3.23;;;;;;;1.14;91.83;92405.03;4917234;28;20624;-74
2022/01/15 01:00:11;;;;;;;5.60;3.30;;;;;;;1.28;91.10;92412.34;4934175;28;20288;-73
2022/01/15 01:02:38;;;;;;;3.47;1.63;;;;;;;1.31;90.63;92414.78;4937789;28;20576;-73
2022/01/15 01:05:06;;;;;;;2.50;2.30;;;;;;;1.32;90.76;92410.66;4938750;28;20580;-74
2022/01/15 01:07:35;;;;;;;2.87;2.47;;;;;;;1.42;90.80;92409.69;4927566;28;20557;-74
2022/01/15 01:10:19;;;;;;;4.87;3.03;;;;;;;1.52;90.32;92411.25;4934477;28;20580;-75
2022/01/15 01:13:08;;;;;;;1.37;1.37;;;;;;;1.55;89.62;92417.00;4940346;28;20233;-74
2022/01/15 01:21:28;;;;;;;2.20;1.93;;;;;;;1.80;89.03;92414.22;4940037;28;20210;-74
2022/01/15 01:23:55;;;;;;;3.87;3.47;;;;;;;1.90;88.39;92400.78;4940283;28;20656;-74
2022/01/15 01:26:29;;;;;;;3.70;3.43;;;;;;;2.01;87.66;92422.22;4939242;28;20644;-74
2022/01/15 01:29:05;;;;;;;2.37;1.67;;;;;;;2.18;85.46;92412.00;4939734;28;20635;-74
2022/01/15 01:31:37;;;;;;;1.43;1.27;;;;;;;2.29;84.90;92409.34;4939823;28;20235;-75
2022/01/15 01:34:08;;;;;;;1.63;1.63;;;;;;;2.43;84.67;92410.75;4939788;28;20569;-75
2022/01/15 01:36:44;;;;;;;2.17;2.07;;;;;;;2.44;84.39;92402.44;4940400;28;20570;-75
2022/01/15 01:39:17;;;;;;;2.57;1.80;;;;;;;2.43;84.70;92408.25;4940971;28;20604;-75
2022/01/15 01:41:53;;;;;;;2.67;2.17;;;;;;;2.42;83.95;92410.81;4939417;28;20588;-74
2022/01/15 01:44:24;;;;;;;1.10;1.10;;;;;;;2.55;81.53;92418.88;4940120;28;20201;-74
2022/01/15 01:47:00;;;;;;;3.57;1.87;;;;;;;2.65;81.64;92401.25;4939783;28;20654;-75
2022/01/15 01:49:27;;;;;;;1.47;1.47;;;;;;;2.73;82.61;92389.50;4939070;28;20596;-75
2022/01/15 01:51:55;;;;;;;2.83;1.63;;;;;;;2.69;83.34;92384.59;4939496;28;20552;-75
2022/01/15 01:54:23;;;;;;;1.37;1.27;;;;;;;2.71;83.37;92390.34;4939252;28;20301;-74
2022/01/15 01:56:51;;;;;;;3.30;1.53;;;;;;;2.68;83.42;92377.94;4939934;28;20244;-74
2022/01/15 01:59:18;;;;;;;1.43;1.43;;;;;;;2.72;82.61;92375.38;4939817;28;20306;-74
2022/01/15 02:01:46;;;;;;;1.70;1.70;;;;;;;2.69;82.92;92379.59;4939661;28;20552;-75
2022/01/15 02:04:13;;;;;;;1.47;1.37;;;;;;;2.80;82.87;92382.72;4939260;28;20600;-75
2022/01/15 02:06:41;;;;;;;2.73;2.57;;;;;;;2.83;82.74;92381.00;4939068;28;20562;-75
2022/01/15 02:09:08;;;;;;;1.83;1.83;;;;;;;2.74;83.73;92360.38;4939398;28;20223;-75
2022/01/15 02:11:39;;;;;;;2.07;1.97;;;;;;;2.63;84.30;92375.53;4939185;28;20564;-75
2022/01/15 02:14:06;;;;;;;1.67;1.67;;;;;;;2.62;84.58;92368.09;4939536;28;20504;-75
2022/01/15 02:16:33;;;;;;;1.57;1.53;;;;;;;2.52;85.42;92356.63;4938306;28;20244;-75
2022/01/15 02:19:00;;;;;;;1.53;1.47;;;;;;;2.38;86.20;92362.66;4940167;28;20577;-75
2022/01/15 02:24:13;;;;;;;3.10;2.87;;;;;;;2.34;87.51;92373.53;4938588;28;20585;-75
2022/01/15 02:26:40;;;;;;;1.40;1.40;;;;;;;2.24;88.01;92364.56;4938611;28;20338;-76
2022/01/15 02:29:10;;;;;;;1.23;0.73;;;;;;;2.21;87.36;92339.66;4938547;28;20641;-75
2022/01/15 02:31:37;;;;;;;0.83;0.83;;;;;;;2.58;86.16;92367.31;4938682;28;20225;-73
2022/01/15 02:34:06;;;;;;;0.90;0.90;;;;;;;2.68;86.16;92358.00;4938688;28;20197;-73
2022/01/15 02:36:37;;;;;;;0.70;0.70;;;;;;;2.84;85.96;92376.84;4938660;28;20292;-75
2022/01/15 02:39:04;;;;;;;0.70;0.70;;;;;;;2.96;85.51;92375.78;4938465;28;20629;-70
2022/01/15 02:41:35;;;;;;;0.90;0.90;;;;;;;3.13;84.42;92372.13;4938736;28;20570;-74
2022/01/15 02:44:05;;;;;;;1.23;1.23;;;;;;;3.11;84.41;92373.00;4938731;28;20220;-73
2022/01/15 02:48:00;;;;;;;0.60;0.60;;;;;;;3.11;84.63;92366.34;4938041;28;20600;-74
2022/01/15 02:49:41;;;;;;;2.87;0.90;;;;;;;3.12;84.27;92364.66;4948154;28;20573;-74
2022/01/15 02:52:10;;;;;;;0.50;0.50;;;;;;;2.96;85.82;92348.34;4919956;28;20482;-75
2022/01/15 02:54:38;;;;;;;0.60;0.53;;;;;;;2.87;86.48;92329.41;4918640;28;20617;-74
2022/01/15 02:57:06;;;;;;;1.90;1.57;;;;;;;2.91;87.13;92333.47;4928753;28;20473;-74
2022/01/15 02:59:33;;;;;;;1.53;1.43;;;;;;;2.84;87.28;92321.97;4938251;28;20604;-74
2022/01/15 03:02:01;;;;;;;1.33;1.33;;;;;;;2.87;87.33;92334.38;4938477;28;20532;-75
2022/01/15 03:04:28;;;;;;;1.43;1.33;;;;;;;2.85;87.28;92326.09;4938451;28;20555;-75
2022/01/15 03:06:56;;;;;;;16.40;6.73;;;;;;;2.83;87.77;92320.31;4937980;28;20592;-75
2022/01/15 03:09:25;;;;;;;1.43;1.40;;;;;;;2.83;88.07;92326.13;4938489;28;20479;-75
2022/01/15 03:11:57;;;;;;;2.53;2.27;;;;;;;2.85;88.33;92336.09;4938206;28;20669;-75
2022/01/15 03:14:25;;;;;;;2.37;2.27;;;;;;;2.88;87.68;92334.34;4938512;28;20641;-74
2022/01/15 03:16:52;;;;;;;1.17;1.17;;;;;;;2.80;88.01;92333.69;4937826;28;20634;-75
2022/01/15 03:19:20;;;;;;;0.90;0.90;;;;;;;2.74;88.42;92323.81;4920980;28;20617;-75
2022/01/15 03:21:47;;;;;;;0.83;0.83;;;;;;;2.59;90.19;92318.28;4937821;28;20668;-74
2022/01/15 03:24:14;;;;;;;0.80;0.80;;;;;;;2.52;90.52;92331.69;4938883;28;20617;-74
2022/01/15 03:26:42;;;;;;;0.60;0.60;;;;;;;2.55;91.13;92329.97;4937928;28;20669;-74
2022/01/15 03:29:10;;;;;;;6.20;4.33;;;;;;;2.57;90.91;92344.91;4936314;28;20579;-74
2022/01/15 03:31:37;;;;;;;2.03;1.93;;;;;;;2.47;91.48;92340.09;4937748;28;20516;-74
2022/01/15 03:34:04;;;;;;;2.20;2.10;;;;;;;2.37;92.19;92331.09;4937563;28;20533;-74
2022/01/15 03:36:31;;;;;;;1.30;1.30;;;;;;;2.36;91.98;92336.94;4937570;28;20581;-74
2022/01/15 03:38:58;;;;;;;1.93;1.80;;;;;;;2.44;91.99;92342.63;4938411;28;20739;-74
2022/01/15 03:41:25;;;;;;;1.60;1.60;;;;;;;2.35;92.89;92335.31;4937772;28;20589;-74
2022/01/15 03:43:54;;;;;;;2.60;2.50;;;;;;;2.41;92.84;92331.88;4937706;28;20531;-74
2022/01/15 03:46:21;;;;;;;2.17;1.63;;;;;;;2.38;92.65;92345.19;4937753;28;20209;-74
2022/01/15 03:48:49;;;;;;;2.87;1.93;;;;;;;2.43;92.41;92347.63;4937747;28;20653;-74
2022/01/15 03:51:19;;;;;;;1.40;1.40;;;;;;;2.49;92.77;92359.97;4937262;28;20208;-73
2022/01/15 03:53:46;;;;;;;0.80;0.80;;;;;;;2.46;93.29;92373.34;4937869;28;20471;-74
2022/01/15 03:56:13;;;;;;;1.07;1.07;;;;;;;2.38;93.63;92355.19;4937702;28;20581;-73
2022/01/15 03:58:40;;;;;;;1.43;1.10;;;;;;;2.46;93.56;92365.03;4937083;28;20738;-72
2022/01/15 04:01:09;;;;;;;2.57;2.30;;;;;;;2.55;93.12;92379.00;4937397;28;20271;-74
2022/01/15 04:03:36;;;;;;;2.43;2.23;;;;;;;2.63;92.31;92364.75;4936999;28;20608;-74
2022/01/15 04:06:03;;;;;;;4.33;2.83;;;;;;;2.59;92.32;92363.16;4936858;28;20540;-74
2022/01/15 04:08:30;;;;;;;2.50;2.33;;;;;;;2.56;92.57;92375.66;4937369;28;20632;-74
2022/01/15 04:10:58;;;;;;;4.00;1.63;;;;;;;2.56;93.34;92373.16;4937125;28;20590;-75
2022/01/15 04:13:25;;;;;;;2.93;2.73;;;;;;;2.50;94.39;92384.91;4937539;28;20460;-73
2022/01/15 04:15:53;;;;;;;2.37;2.27;;;;;;;2.57;94.36;92380.63;4937270;28;20306;-74
2022/01/15 04:18:22;;;;;;;2.63;2.53;;;;;;;2.64;93.44;92381.34;4917578;28;20668;-74
2022/01/15 04:20:51;;;;;;;2.87;2.10;;;;;;;2.66;93.10;92394.59;4917847;28;20606;-74
2022/01/15 04:23:18;;;;;;;3.30;2.93;;;;;;;2.65;93.38;92393.78;4927749;28;20640;-74
2022/01/15 04:25:45;;;;;;;3.50;2.20;;;;;;;2.50;93.82;92381.56;4936441;28;20503;-74
2022/01/15 04:28:12;;;;;;;5.73;2.80;;;;;;;2.50;94.16;92394.03;4937998;28;20501;-74
2022/01/15 04:30:42;;;;;;;6.67;4.90;;;;;;;2.59;93.58;92408.03;4936863;28;20684;-74
2022/01/15 04:33:09;;;;;;;12.53;5.90;;;;;;;2.58;93.18;92418.84;4936966;28;20641;-74
2022/01/15 04:35:38;;;;;;;3.37;3.07;;;;;;;2.51;93.88;92418.13;4937541;28;20510;-74
2022/01/15 04:38:09;;;;;;;6.80;6.10;;;;;;;2.53;93.11;92428.91;4937980;28;20555;-74
2022/01/15 04:40:36;;;;;;;22.03;7.77;;;;;;;2.44;93.28;92427.38;4940218;28;20445;-74
2022/01/15 04:43:04;;;;;;;5.13;4.80;;;;;;;2.41;93.54;92434.91;4940652;28;20482;-74
2022/01/15 04:45:31;;;;;;;7.00;6.13;;;;;;;2.26;93.68;92422.66;4940727;28;20578;-74
2022/01/15 04:47:58;;;;;;;3.07;2.87;;;;;;;2.23;95.79;92422.72;4940292;28;20476;-74
2022/01/15 04:50:25;;;;;;;1.77;1.67;;;;;;;2.13;96.57;92410.41;4939447;28;20609;-74
2022/01/15 04:52:54;;;;;;;1.83;1.73;;;;;;;2.17;97.26;92417.81;4937393;28;20617;-74
2022/01/15 04:55:21;;;;;;;1.13;1.13;;;;;;;2.18;96.82;92426.13;4940452;28;20593;-73
2022/01/15 04:57:48;;;;;;;1.43;1.43;;;;;;;2.28;96.69;92430.94;4940365;28;20598;-74
2022/01/15 05:00:18;;;;;;;1.00;1.00;;;;;;;2.36;96.67;92438.31;4940198;28;20604;-74
2022/01/15 05:02:46;;;;;;;5.60;1.67;;;;;;;2.23;97.53;92422.72;4940967;28;20490;-74
2022/01/15 05:05:14;;;;;;;1.00;1.00;;;;;;;2.14;97.78;92407.88;4942192;28;20565;-74
2022/01/15 05:07:42;;;;;;;2.03;1.93;;;;;;;2.30;97.60;92445.88;4940455;28;20306;-74
2022/01/15 05:10:13;;;;;;;2.90;2.77;;;;;;;2.23;97.41;92419.41;4940349;28;20643;-74
2022/01/15 05:12:43;;;;;;;3.80;3.60;;;;;;;2.47;97.02;92461.41;4939773;28;20478;-74
2022/01/15 05:15:12;;;;;;;2.30;1.93;;;;;;;2.50;97.16;92459.69;4940498;28;20476;-73
2022/01/15 05:17:40;;;;;;;2.10;2.03;;;;;;;2.57;97.19;92464.59;4941239;28;20453;-74
2022/01/15 05:20:09;;;;;;;2.40;2.10;;;;;;;2.72;96.20;92451.84;4940095;28;20290;-74
2022/01/15 05:22:36;;;;;;;2.47;2.27;;;;;;;2.83;95.45;92464.97;4940234;28;20551;-73
2022/01/15 05:25:07;;;;;;;6.17;4.60;;;;;;;2.79;95.65;92444.25;4939850;28;20628;-71
2022/01/15 05:27:36;;;;;;;14.07;5.33;;;;;;;2.96;96.22;92461.44;4939467;28;20511;-72
2022/01/15 05:30:04;;;;;;;3.83;3.53;;;;;;;3.10;95.83;92467.00;4939785;28;20519;-73
2022/01/15 05:32:31;;;;;;;8.93;4.40;;;;;;;3.27;94.85;92487.50;4940322;28;20586;-74
2022/01/15 05:34:58;;;;;;;7.47;6.57;;;;;;;3.38;93.82;92482.31;4939700;28;20555;-75
2022/01/15 05:37:26;;;;;;;5.10;4.73;;;;;;;3.54;93.51;92495.38;4939892;28;20481;-75
2022/01/15 05:39:53;;;;;;;6.53;5.73;;;;;;;3.55;92.58;92494.53;4938332;28;20608;-74
2022/01/15 05:42:20;;;;;;;3.50;3.40;;;;;;;3.40;93.01;92465.66;4939086;28;20209;-74
2022/01/15 05:44:49;;;;;;;7.63;4.80;;;;;;;3.58;93.10;92486.97;4934770;28;20660;-75
2022/01/15 05:47:16;;;;;;;7.43;5.87;;;;;;;3.60;92.53;92501.06;4934848;28;20205;-76
2022/01/15 05:49:44;;;;;;;72.83;32.10;;;;;;;3.64;92.17;92481.84;4935372;28;20505;-74
2022/01/15 05:52:11;;;;;;;32.30;19.87;;;;;;;3.65;92.49;92486.00;4935616;28;20216;-72
2022/01/15 05:54:38;;;;;;;18.47;12.63;;;;;;;3.70;92.05;92489.22;4936814;28;20683;-73
2022/01/15 05:57:05;;;;;;;7.77;4.40;;;;;;;3.69;91.05;92483.41;4946859;28;20458;-73
2022/01/15 05:59:33;;;;;;;6.83;4.10;;;;;;;3.78;91.11;92499.88;4929848;28;20542;-73
2022/01/15 06:02:01;;;;;;;3.20;3.10;;;;;;;3.79;91.25;92496.53;4937077;28;20570;-75
2022/01/15 06:04:28;;;;;;;6.07;4.87;;;;;;;3.65;91.39;92479.34;4935388;28;20565;-72
2022/01/15 06:06:56;;;;;;;4.00;3.50;;;;;;;3.77;91.39;92499.94;4935548;28;20606;-72
2022/01/15 06:09:23;;;;;;;2.07;1.93;;;;;;;3.70;91.80;92501.72;4938728;28;20581;-73
2022/01/15 06:11:50;;;;;;;3.40;3.23;;;;;;;3.73;92.04;92506.66;4935861;28;20576;-73
2022/01/15 06:14:18;;;;;;;4.07;2.97;;;;;;;3.78;91.95;92522.38;4933768;28;20625;-74
2022/01/15 06:16:45;;;;;;;2.90;2.80;;;;;;;3.85;92.16;92518.09;4930258;28;20554;-72
2022/01/15 06:19:13;;;;;;;5.80;3.30;;;;;;;3.95;91.91;92534.53;4926215;28;20229;-73
2022/01/15 06:21:41;;;;;;;7.33;4.90;;;;;;;3.95;92.25;92540.34;4935319;28;20303;-73
2022/01/15 06:24:08;;;;;;;3.70;3.37;;;;;;;3.92;92.29;92544.59;4935513;28;20617;-73
2022/01/15 06:26:35;;;;;;;7.57;4.33;;;;;;;3.97;92.57;92553.66;4937037;28;20566;-73
2022/01/15 06:29:03;;;;;;;4.33;4.03;;;;;;;3.71;92.65;92516.69;4936733;28;20700;-74
2022/01/15 06:31:31;;;;;;;4.53;4.13;;;;;;;3.95;92.80;92565.34;4933103;28;20574;-71
2022/01/15 06:33:58;;;;;;;5.07;4.60;;;;;;;4.01;92.70;92575.22;4936912;28;20492;-71
2022/01/15 06:36:26;;;;;;;7.43;6.80;;;;;;;3.99;92.65;92571.97;4937303;28;20593;-74
2022/01/15 06:38:54;;;;;;;8.13;6.17;;;;;;;4.02;92.63;92588.56;4936417;28;20644;-73
2022/01/15 06:41:21;;;;;;;6.63;5.93;;;;;;;4.07;92.51;92586.78;4933180;28;20205;-73
2022/01/15 06:43:48;;;;;;;6.67;5.90;;;;;;;4.06;92.25;92590.13;4934206;28;20271;-72
2022/01/15 06:46:15;;;;;;;5.07;4.77;;;;;;;4.12;92.34;92598.34;4935959;28;20580;-73
2022/01/15 06:48:43;;;;;;;14.30;7.93;;;;;;;4.23;92.08;92595.63;4933887;28;20593;-73
2022/01/15 06:51:10;;;;;;;14.77;7.87;;;;;;;4.42;90.99;92606.13;4933438;28;20553;-71
2022/01/15 06:53:38;;;;;;;33.60;15.50;;;;;;;4.51;90.23;92609.25;4933611;28;20612;-70
2022/01/15 06:56:06;;;;;;;14.63;9.37;;;;;;;4.51;89.81;92601.75;4933003;28;20589;-71
2022/01/15 06:58:33;;;;;;;8.47;5.77;;;;;;;4.65;88.52;92625.66;4935792;28;20662;-74
2022/01/15 07:01:00;;;;;;;5.57;5.13;;;;;;;4.73;88.90;92622.13;4934854;28;20557;-73
2022/01/15 07:03:27;;;;;;;5.07;4.67;;;;;;;4.83;87.70;92627.78;4938700;28;20510;-73
2022/01/15 07:05:55;;;;;;;4.93;4.53;;;;;;;4.82;87.52;92636.16;4934463;28;20643;-73
2022/01/15 07:08:22;;;;;;;3.57;3.37;;;;;;;4.74;87.78;92627.97;4934523;28;20609;-73
2022/01/15 07:10:50;;;;;;;3.33;3.10;;;;;;;4.77;87.58;92633.75;4937910;28;20651;-72
2022/01/15 07:13:19;;;;;;;5.13;4.83;;;;;;;4.77;87.62;92630.41;4934847;28;20571;-73
2022/01/15 07:15:47;;;;;;;6.17;3.43;;;;;;;4.70;87.08;92637.22;4934638;28;20539;-73
2022/01/15 07:18:14;;;;;;;3.80;3.50;;;;;;;4.68;87.06;92631.41;4933618;28;20574;-73
2022/01/15 07:20:42;;;;;;;2.73;2.63;;;;;;;4.86;85.27;92666.09;4935715;28;20628;-72
2022/01/15 07:23:10;;;;;;;6.87;4.23;;;;;;;4.94;84.74;92676.78;4934867;28;20201;-71
2022/01/15 07:25:37;;;;;;;4.23;3.30;;;;;;;4.93;84.08;92685.13;4934696;28;20205;-72
2022/01/15 07:28:06;;;;;;;7.13;5.23;;;;;;;5.03;84.51;92685.75;4933433;28;20679;-72
2022/01/15 07:30:33;;;;;;;3.50;3.13;;;;;;;5.05;84.03;92698.25;4933074;28;20605;-71
2022/01/15 07:33:00;;;;;;;4.53;4.23;;;;;;;5.10;84.25;92701.47;4932436;28;20259;-71
2022/01/15 07:35:27;;;;;;;9.10;5.07;;;;;;;5.14;83.76;92698.06;4934335;28;20498;-71
2022/01/15 07:37:55;;;;;;;3.17;2.90;;;;;;;5.17;82.66;92720.53;4935858;28;20527;-72
2022/01/15 07:40:22;;;;;;;3.90;3.13;;;;;;;5.24;83.24;92725.38;4931393;28;20651;-71
2022/01/15 07:42:52;;;;;;;5.57;4.93;;;;;;;5.26;82.89;92723.66;4929673;28;20609;-72
2022/01/15 07:45:20;;;;;;;4.53;4.23;;;;;;;5.16;83.54;92708.88;4926476;28;20605;-73
2022/01/15 07:47:48;;;;;;;4.50;3.60;;;;;;;5.25;83.52;92724.50;4927463;28;20589;-71
2022/01/15 07:50:23;;;;;;;5.00;4.67;;;;;;;5.15;82.04;92734.75;4926774;28;20574;-72
2022/01/15 07:52:50;;;;;;;3.93;3.50;;;;;;;5.15;82.92;92729.75;4933777;28;20640;-72
2022/01/15 07:55:18;;;;;;;3.13;2.93;;;;;;;5.25;82.04;92752.06;4928437;28;20586;-70
2022/01/15 07:57:46;;;;;;;3.37;2.90;;;;;;;5.16;81.67;92738.91;4932743;28;20547;-72
2022/01/15 08:00:16;;;;;;;6.53;4.50;;;;;;;5.24;82.56;92744.59;4934634;28;20267;-73
2022/01/15 08:02:48;;;;;;;62.53;30.20;;;;;;;5.31;82.37;92748.59;4923210;28;20562;-73
2022/01/15 08:05:15;;;;;;;86.63;35.53;;;;;;;5.33;82.81;92749.41;4931131;28;20346;-72
2022/01/15 08:07:43;;;;;;;32.93;16.53;;;;;;;5.38;83.01;92755.16;4928317;28;20629;-72
2022/01/15 08:10:10;;;;;;;9.33;7.90;;;;;;;5.43;83.66;92751.69;4936655;28;20475;-73
2022/01/15 08:12:46;;;;;;;40.37;18.60;;;;;;;5.44;82.79;92755.03;4928009;28;20700;-70
2022/01/15 08:15:15;;;;;;;22.27;13.97;;;;;;;5.42;81.66;92762.56;4932008;28;20533;-72
2022/01/15 08:17:42;;;;;;;10.17;7.03;;;;;;;5.47;82.46;92752.44;4931080;28;20486;-72
2022/01/15 08:20:12;;;;;;;6.70;5.10;;;;;;;5.55;81.99;92765.63;4932911;28;20714;-72
2022/01/15 08:22:42;;;;;;;5.93;5.47;;;;;;;5.47;79.81;92782.50;4930906;28;20205;-72
2022/01/15 08:25:11;;;;;;;6.83;4.90;;;;;;;5.40;81.49;92776.81;4937800;28;20535;-72
2022/01/15 08:27:38;;;;;;;9.67;6.57;;;;;;;5.34;83.06;92759.41;4932853;28;20508;-73
2022/01/15 08:30:07;;;;;;;14.00;8.37;;;;;;;5.42;82.25;92770.06;4937462;28;20691;-73
2022/01/15 08:32:34;;;;;;;9.33;6.60;;;;;;;5.32;81.72;92801.19;4927683;28;20201;-72
2022/01/15 08:35:02;;;;;;;6.00;5.50;;;;;;;5.21;81.37;92800.56;4946148;28;20458;-73
2022/01/15 08:37:30;;;;;;;4.00;3.70;;;;;;;5.20;82.01;92798.09;4937409;28;20232;-74
2022/01/15 08:39:57;;;;;;;7.03;4.67;;;;;;;5.29;81.65;92802.94;4928846;28;20555;-74
2022/01/15 08:42:25;;;;;;;6.47;4.47;;;;;;;5.27;81.30;92789.59;4930362;28;20648;-74
2022/01/15 08:44:52;;;;;;;2.57;2.37;;;;;;;5.42;80.15;92809.31;4938858;28;20493;-73
2022/01/15 08:47:20;;;;;;;3.00;2.80;;;;;;;5.52;80.22;92802.47;4939737;28;20223;-74
2022/01/15 08:49:47;;;;;;;5.30;2.80;;;;;;;5.59;79.18;92817.31;4932512;28;20648;-74
2022/01/15 08:52:14;;;;;;;3.53;3.10;;;;;;;5.71;79.11;92817.06;4931702;28;20310;-74
2022/01/15 08:54:43;;;;;;;7.73;3.30;;;;;;;5.83;76.83;92824.34;4932879;28;20585;-74
2022/01/15 08:57:10;;;;;;;3.33;3.07;;;;;;;5.87;76.62;92826.75;4933813;28;20492;-73
2022/01/15 08:59:37;;;;;;;3.20;3.00;;;;;;;6.03;76.37;92813.88;4932761;28;20220;-74
2022/01/15 09:02:04;;;;;;;5.40;4.97;;;;;;;6.16;75.69;92832.00;4936125;28;20617;-74
2022/01/15 09:04:32;;;;;;;8.53;5.57;;;;;;;6.15;77.73;92807.75;4933817;28;20585;-73
2022/01/15 09:06:59;;;;;;;18.17;8.90;;;;;;;5.95;78.66;92799.88;4932207;28;20233;-73
2022/01/15 09:09:26;;;;;;;24.57;13.83;;;;;;;5.80;79.58;92794.31;4933144;28;20198;-73
2022/01/15 09:12:15;;;;;;;9.47;7.70;;;;;;;5.69;80.20;92792.91;4931857;28;20506;-73
2022/01/15 09:14:42;;;;;;;8.87;6.67;;;;;;;5.61;80.75;92783.03;4933932;28;20577;-73
2022/01/15 09:17:09;;;;;;;10.03;6.63;;;;;;;5.51;80.77;92799.13;4932114;28;20555;-73
2022/01/15 09:19:37;;;;;;;6.87;6.13;;;;;;;5.46;81.11;92800.09;4930429;28;20248;-72
2022/01/15 09:22:08;;;;;;;6.50;5.77;;;;;;;5.51;82.22;92785.78;4930393;28;20596;-73
2022/01/15 09:24:35;;;;;;;8.30;6.83;;;;;;;5.59;82.12;92791.44;4934232;28;20600;-72
2022/01/15 09:30:12;;;;;;;11.97;7.47;;;;;;;5.79;81.01;92799.38;4940493;28;20604;-74
2022/01/15 09:32:36;;;;;;;6.40;5.10;;;;;;;5.74;80.12;92806.16;4938287;28;20647;-73
2022/01/15 09:35:04;;;;;;;12.13;9.00;;;;;;;5.85;80.78;92804.25;4935736;28;20624;-74
2022/01/15 09:37:31;;;;;;;19.00;10.43;;;;;;;5.78;80.35;92806.06;4931406;28;20483;-73
2022/01/15 09:39:59;;;;;;;14.27;9.07;;;;;;;5.77;80.90;92796.88;4930177;28;20692;-73
2022/01/15 09:42:26;;;;;;;6.33;5.80;;;;;;;5.64;79.95;92823.06;4936793;28;20472;-72
2022/01/15 09:44:55;;;;;;;15.50;8.73;;;;;;;5.57;81.19;92813.22;4940093;28;20235;-73
2022/01/15 09:47:23;;;;;;;3.70;3.50;;;;;;;5.61;80.71;92803.09;4935635;28;20556;-73
2022/01/15 09:49:53;;;;;;;6.93;4.67;;;;;;;5.82;81.36;92795.09;4953410;28;20494;-73
2022/01/15 09:52:20;;;;;;;15.83;8.67;;;;;;;5.78;81.53;92783.50;4944147;28;20289;-73
2022/01/15 09:54:48;;;;;;;9.27;6.47;;;;;;;5.91;80.42;92803.31;4949621;28;20588;-73
2022/01/15 09:57:15;;;;;;;4.87;4.47;;;;;;;5.70;81.87;92789.53;4939540;28;20652;-71
2022/01/15 09:59:42;;;;;;;11.53;5.40;;;;;;;5.70;81.19;92802.88;4933111;28;20611;-74
2022/01/15 10:02:11;;;;;;;6.07;5.47;;;;;;;5.78;82.30;92791.03;4933742;28;20200;-73
2022/01/15 10:04:38;;;;;;;42.93;20.37;;;;;;;5.96;83.43;92791.50;4934349;28;20617;-73
2022/01/15 10:07:11;;;;;;;5.57;5.03;;;;;;;6.16;79.35;92812.75;4930812;28;20582;-74
2022/01/15 10:09:38;;;;;;;6.63;5.90;;;;;;;6.41;79.42;92809.69;4931339;28;20491;-74
2022/01/15 10:12:07;;;;;;;4.00;3.63;;;;;;;6.19;77.35;92829.44;4916472;28;20566;-73
2022/01/15 10:14:39;;;;;;;10.30;5.73;;;;;;;6.49;79.00;92805.28;4936778;28;20586;-73
2022/01/15 10:17:23;;;;;;;5.20;4.67;;;;;;;7.04;74.94;92840.69;4932449;28;20484;-73
2022/01/15 10:19:51;;;;;;;15.37;5.70;;;;;;;7.14;74.98;92832.94;4933399;28;20755;-74
2022/01/15 10:22:22;;;;;;;2.90;2.80;;;;;;;7.44;74.24;92837.94;4932382;28;20490;-74
2022/01/15 10:24:57;;;;;;;9.33;4.20;;;;;;;8.43;72.06;92849.34;4934776;28;20236;-73
2022/01/15 10:27:27;;;;;;;5.33;4.43;;;;;;;8.86;68.33;92867.28;4936401;28;20200;-72
2022/01/15 10:29:57;;;;;;;6.70;5.70;;;;;;;9.36;66.12;92867.28;4935727;28;20625;-75
2022/01/15 10:32:29;;;;;;;2.40;2.30;;;;;;;9.75;64.54;92870.94;4935515;28;20578;-77
2022/01/15 10:34:57;;;;;;;2.57;2.47;;;;;;;10.41;62.60;92869.41;4937138;28;20620;-75
2022/01/15 10:37:26;;;;;;;4.03;3.83;;;;;;;11.22;60.12;92875.41;4933159;28;20204;-75
2022/01/15 10:39:59;;;;;;;3.67;3.07;;;;;;;11.28;59.26;92879.38;4932348;28;20233;-75
2022/01/15 10:42:28;;;;;;;2.50;2.40;;;;;;;11.86;56.62;92895.50;4931804;28;20662;-75
2022/01/15 10:44:57;;;;;;;4.25;3.83;;;;;;;12.41;54.63;92881.22;4936116;28;20505;-74
2022/01/15 10:47:28;;;;;;;7.90;7.30;;;;;;;12.16;52.66;92888.28;4932882;28;20868;-75
2022/01/15 10:50:01;;;;;;;6.53;5.93;;;;;;;11.90;52.09;92876.75;4934171;28;20631;-75
2022/01/15 10:52:29;;;;;;;3.78;3.47;;;;;;;11.91;51.47;92860.69;4933859;28;20535;-76
2022/01/15 10:55:00;;;;;;;3.42;3.13;;;;;;;11.90;52.07;92866.63;4934184;28;20488;-75
2022/01/15 10:57:30;;;;;;;2.75;2.55;;;;;;;12.16;50.88;92862.97;4935413;28;20593;-75
2022/01/15 11:00:05;;;;;;;5.95;3.40;;;;;;;12.20;50.78;92863.63;4933234;28;20625;-75
2022/01/15 11:02:34;;;;;;;3.00;2.80;;;;;;;11.99;52.27;92848.53;4930717;28;20514;-75
2022/01/15 11:05:02;;;;;;;7.00;4.10;;;;;;;12.03;51.59;92844.94;4930092;28;20648;-73
2022/01/15 11:07:35;;;;;;;4.18;2.88;;;;;;;12.15;50.89;92842.75;4933059;28;20612;-74
2022/01/15 11:10:04;;;;;;;3.70;3.40;;;;;;;12.98;49.72;92843.91;4931567;28;20491;-74
2022/01/15 11:12:32;;;;;;;11.82;6.18;;;;;;;13.56;49.18;92852.03;4924748;28;20706;-74
2022/01/15 11:14:59;;;;;;;3.38;3.13;;;;;;;12.98;49.69;92843.06;4932221;28;20597;-73
2022/01/15 11:17:26;;;;;;;5.18;4.57;;;;;;;12.60;48.28;92857.56;4928199;28;20558;-74
2022/01/15 11:19:55;;;;;;;3.45;3.25;;;;;;;13.06;46.94;92854.50;4932621;28;20326;-74
2022/01/15 11:22:23;;;;;;;5.40;4.93;;;;;;;13.75;45.91;92851.91;4933960;28;20617;-73
2022/01/15 11:24:51;;;;;;;4.00;3.60;;;;;;;14.30;43.91;92860.06;4935769;28;20456;-74
2022/01/15 11:27:19;;;;;;;4.15;3.85;;;;;;;13.81;44.08;92871.09;4931888;28;20549;-73
2022/01/15 11:29:48;;;;;;;2.70;2.60;;;;;;;13.23;45.31;92854.53;4932817;28;20648;-74
2022/01/15 11:32:17;;;;;;;3.55;3.25;;;;;;;13.17;46.91;92833.72;4932794;28;20479;-74
2022/01/15 11:35:04;;;;;;;4.85;4.45;;;;;;;13.39;44.88;92844.44;4931280;28;20495;-73
2022/01/15 11:37:45;;;;;;;2.95;2.83;;;;;;;14.01;42.62;92864.13;4924974;28;20618;-74
2022/01/15 11:40:40;;;;;;;5.82;4.47;;;;;;;15.06;41.25;92860.16;4930837;28;20605;-73
2022/01/15 11:43:45;;;;;;;4.43;4.13;;;;;;;15.69;40.61;92871.81;4893067;28;20576;-74
2022/01/15 11:46:29;;;;;;;6.15;5.07;;;;;;;16.17;39.30;92862.19;4927770;28;20539;-74
2022/01/15 11:49:31;;;;;;;3.67;3.42;;;;;;;16.09;38.66;92874.56;4933164;28;20311;-74
2022/01/15 11:52:32;;;;;;;3.63;3.40;;;;;;;16.14;36.67;92880.22;4934146;28;20560;-74
2022/01/15 11:55:20;;;;;;;6.07;4.20;;;;;;;16.45;36.23;92881.75;4935644;28;20538;-74
2022/01/15 11:57:56;;;;;;;4.28;3.97;;;;;;;16.36;35.91;92883.13;4935757;28;20491;-73
2022/01/15 12:00:34;;;;;;;4.22;3.92;;;;;;;15.66;37.71;92863.56;4932705;28;20711;-75